createdAt,value
2022-07-27T00:00:25.959Z,19.70
2022-07-27T00:02:27.771Z,19.70
2022-07-27T00:04:29.589Z,19.70
2022-07-27T00:06:31.484Z,19.70
2022-07-27T00:08:33.765Z,19.70
2022-07-27T00:10:36.170Z,19.60
2022-07-27T00:12:37.982Z,19.60
2022-07-27T00:14:39.770Z,19.60
2022-07-27T00:16:41.870Z,19.60
2022-07-27T00:18:43.741Z,19.50
2022-07-27T00:20:45.546Z,19.50
2022-07-27T00:22:47.342Z,19.50
2022-07-27T00:24:49.623Z,19.50
2022-07-27T00:26:51.548Z,19.50
2022-07-27T00:28:53.348Z,19.40
2022-07-27T00:30:55.161Z,19.40
2022-07-27T00:32:57.196Z,19.40
2022-07-27T00:34:58.995Z,19.40
2022-07-27T00:37:00.925Z,19.40
2022-07-27T00:39:02.728Z,19.40
2022-07-27T00:41:04.525Z,19.40
2022-07-27T00:43:06.325Z,19.40
2022-07-27T00:45:08.728Z,19.40
2022-07-27T00:47:10.527Z,19.40
2022-07-27T00:49:12.772Z,19.40
2022-07-27T00:51:16.420Z,19.40
2022-07-27T00:53:18.214Z,19.40
2022-07-27T00:55:20.018Z,19.40
2022-07-27T00:57:23.025Z,19.40
2022-07-27T00:59:25.661Z,19.40
2022-07-27T01:01:27.517Z,19.40
2022-07-27T01:03:30.054Z,19.40
2022-07-27T01:05:36.135Z,19.40
2022-07-27T01:07:38.873Z,19.40
2022-07-27T01:09:59.834Z,19.40
2022-07-27T01:12:01.919Z,19.40
2022-07-27T01:14:03.837Z,19.40
2022-07-27T01:16:06.882Z,19.40
2022-07-27T01:18:13.172Z,19.40
2022-07-27T01:20:15.016Z,19.30
2022-07-27T01:22:17.045Z,19.30
2022-07-27T01:24:18.968Z,19.30
2022-07-27T01:26:20.770Z,19.30
2022-07-27T01:28:22.588Z,19.30
2022-07-27T01:30:27.379Z,19.30
2022-07-27T01:32:29.180Z,19.30
2022-07-27T01:34:33.678Z,19.30
2022-07-27T01:36:35.541Z,19.30
2022-07-27T01:38:37.464Z,19.30
2022-07-27T01:40:40.033Z,19.20
2022-07-27T01:42:42.031Z,19.20
2022-07-27T01:44:43.950Z,19.20
2022-07-27T01:46:45.831Z,19.20
2022-07-27T01:48:47.754Z,19.10
2022-07-27T01:50:51.291Z,19.10
2022-07-27T01:52:53.213Z,19.10
2022-07-27T01:54:55.011Z,19.00
2022-07-27T01:56:56.804Z,19.00
2022-07-27T01:58:59.091Z,19.00
2022-07-27T02:01:00.890Z,18.90
2022-07-27T02:03:03.411Z,18.90
2022-07-27T02:05:05.778Z,18.90
2022-07-27T02:07:07.617Z,18.80
2022-07-27T02:09:09.750Z,18.80
2022-07-27T02:11:30.184Z,18.80
2022-07-27T02:13:31.989Z,18.70
2022-07-27T02:15:42.939Z,18.70
2022-07-27T02:17:45.666Z,18.70
2022-07-27T02:19:47.471Z,18.60
2022-07-27T02:21:49.274Z,18.60
2022-07-27T02:23:51.195Z,18.60
2022-07-27T02:25:52.994Z,18.50
2022-07-27T02:27:54.920Z,18.50
2022-07-27T02:29:58.057Z,18.50
2022-07-27T02:31:59.841Z,18.40
2022-07-27T02:34:01.771Z,18.40
2022-07-27T02:36:03.806Z,18.40
2022-07-27T02:38:05.609Z,18.40
2022-07-27T02:40:07.654Z,18.40
2022-07-27T02:42:09.574Z,18.40
2022-07-27T02:44:11.378Z,18.40
2022-07-27T02:46:13.246Z,18.40
2022-07-27T02:48:15.223Z,18.40
2022-07-27T02:50:17.023Z,18.30
2022-07-27T02:52:18.826Z,18.30
2022-07-27T02:54:22.069Z,18.30
2022-07-27T02:56:26.701Z,18.30
2022-07-27T02:58:29.029Z,18.30
2022-07-27T03:00:30.955Z,18.30
2022-07-27T03:02:32.756Z,18.30
2022-07-27T03:04:34.837Z,18.20
2022-07-27T03:06:36.751Z,18.20
2022-07-27T03:08:38.528Z,18.20
2022-07-27T03:10:40.325Z,18.20
2022-07-27T03:12:43.685Z,18.20
2022-07-27T03:14:45.502Z,18.20
2022-07-27T03:16:47.302Z,18.20
2022-07-27T03:18:49.852Z,18.20
2022-07-27T03:20:51.976Z,18.20
2022-07-27T03:22:54.385Z,18.20
2022-07-27T03:24:56.312Z,18.10
2022-07-27T03:26:58.106Z,18.10
2022-07-27T03:29:00.161Z,18.10
2022-07-27T03:31:02.095Z,18.10
2022-07-27T03:33:04.114Z,18.10
2022-07-27T03:35:06.270Z,18.10
2022-07-27T03:37:08.194Z,18.10
2022-07-27T03:39:10.236Z,18.10
2022-07-27T03:41:12.406Z,18.10
2022-07-27T03:43:14.438Z,18.10
2022-07-27T03:45:16.245Z,18.10
2022-07-27T03:47:18.292Z,18.10
2022-07-27T03:49:20.217Z,18.10
2022-07-27T03:51:22.982Z,18.10
2022-07-27T03:53:24.774Z,18.10
2022-07-27T03:55:26.709Z,18.10
2022-07-27T03:57:28.499Z,18.10
2022-07-27T03:59:30.298Z,18.10
2022-07-27T04:01:32.191Z,18.10
2022-07-27T04:03:34.024Z,18.10
2022-07-27T04:05:35.946Z,18.10
2022-07-27T04:07:37.879Z,18.10
2022-07-27T04:09:39.667Z,18.10
2022-07-27T04:11:51.189Z,18.20
2022-07-27T04:13:53.597Z,18.10
2022-07-27T04:15:57.924Z,18.10
2022-07-27T04:17:59.797Z,18.10
2022-07-27T04:20:01.640Z,18.10
2022-07-27T04:22:03.566Z,18.10
2022-07-27T04:24:05.728Z,18.20
2022-07-27T04:26:10.890Z,18.20
2022-07-27T04:28:12.813Z,18.20
2022-07-27T04:30:14.732Z,18.20
2022-07-27T04:32:16.537Z,18.20
2022-07-27T04:34:18.335Z,18.20
2022-07-27T04:36:20.141Z,18.30
2022-07-27T04:38:21.942Z,18.30
2022-07-27T04:40:23.744Z,18.40
2022-07-27T04:42:25.546Z,18.30
2022-07-27T04:44:27.469Z,18.40
2022-07-27T04:46:32.545Z,18.30
2022-07-27T04:48:35.107Z,18.30
2022-07-27T04:50:41.155Z,18.30
2022-07-27T04:52:42.962Z,18.30
2022-07-27T04:54:44.761Z,18.30
2022-07-27T04:56:46.688Z,18.40
2022-07-27T04:58:48.483Z,18.40
2022-07-27T05:00:50.566Z,18.40
2022-07-27T05:02:52.572Z,18.40
2022-07-27T05:04:54.609Z,18.50
2022-07-27T05:06:56.414Z,18.50
2022-07-27T05:08:58.455Z,18.50
2022-07-27T05:11:00.260Z,18.50
2022-07-27T05:13:02.302Z,18.50
2022-07-27T05:15:09.506Z,18.50
2022-07-27T05:17:11.313Z,18.60
2022-07-27T05:19:14.087Z,18.60
2022-07-27T05:21:16.475Z,18.60
2022-07-27T05:23:18.274Z,18.60
2022-07-27T05:25:21.635Z,18.70
2022-07-27T05:27:23.436Z,18.70
2022-07-27T05:29:25.718Z,18.70
2022-07-27T05:31:27.635Z,18.60
2022-07-27T05:33:29.566Z,18.70
2022-07-27T05:35:31.366Z,18.70
2022-07-27T05:37:33.540Z,18.70
2022-07-27T05:39:35.569Z,18.70
2022-07-27T05:41:37.377Z,18.80
2022-07-27T05:43:39.304Z,18.80
2022-07-27T05:45:41.178Z,18.80
2022-07-27T05:47:43.138Z,18.80
2022-07-27T05:49:44.938Z,18.90
2022-07-27T05:51:46.744Z,18.90
2022-07-27T05:53:48.548Z,18.90
2022-07-27T05:55:58.646Z,19.00
2022-07-27T05:58:01.395Z,19.00
2022-07-27T06:00:04.393Z,19.00
2022-07-27T06:02:06.195Z,19.00
2022-07-27T06:04:08.239Z,19.10
2022-07-27T06:06:28.762Z,19.10
2022-07-27T06:08:30.562Z,19.10
2022-07-27T06:10:33.803Z,19.20
2022-07-27T06:12:39.477Z,19.30
2022-07-27T06:14:41.368Z,19.30
2022-07-27T06:16:43.237Z,19.30
2022-07-27T06:18:45.093Z,19.40
2022-07-27T06:20:46.892Z,19.40
2022-07-27T06:22:49.777Z,19.40
2022-07-27T06:24:51.575Z,19.40
2022-07-27T06:26:53.382Z,19.50
2022-07-27T06:28:58.954Z,19.50
2022-07-27T06:31:01.275Z,19.60
2022-07-27T06:33:06.864Z,19.60
2022-07-27T06:35:09.238Z,19.70
2022-07-27T06:37:11.041Z,19.70
2022-07-27T06:39:13.527Z,19.80
2022-07-27T06:41:15.837Z,19.80
2022-07-27T06:43:17.640Z,19.80
2022-07-27T06:45:19.442Z,19.90
2022-07-27T06:47:24.857Z,19.90
2022-07-27T06:49:30.405Z,20.00
2022-07-27T06:51:32.783Z,20.00
2022-07-27T06:53:37.019Z,20.10
2022-07-27T06:55:39.372Z,20.10
2022-07-27T06:57:43.068Z,20.10
2022-07-27T06:59:45.016Z,20.10
2022-07-27T07:01:48.981Z,20.10
2022-07-27T07:03:53.132Z,20.20
2022-07-27T07:05:55.344Z,20.20
2022-07-27T07:07:57.265Z,20.30
2022-07-27T07:09:59.070Z,20.40
2022-07-27T07:12:01.234Z,20.40
2022-07-27T07:14:03.162Z,20.50
2022-07-27T07:16:05.337Z,20.50
2022-07-27T07:18:07.873Z,20.60
2022-07-27T07:20:10.002Z,20.70
2022-07-27T07:22:11.804Z,20.70
2022-07-27T07:24:13.985Z,20.80
2022-07-27T07:26:15.771Z,20.90
2022-07-27T07:28:22.184Z,20.90
2022-07-27T07:30:24.431Z,20.90
2022-07-27T07:32:33.045Z,21.00
2022-07-27T07:34:35.355Z,21.10
2022-07-27T07:36:37.141Z,21.20
2022-07-27T07:38:38.939Z,21.30
2022-07-27T07:40:43.959Z,21.30
2022-07-27T07:42:56.826Z,21.30
2022-07-27T07:44:58.746Z,21.30
2022-07-27T07:47:00.917Z,21.30
2022-07-27T07:49:03.840Z,21.40
2022-07-27T07:51:05.835Z,21.40
2022-07-27T07:53:07.638Z,21.40
2022-07-27T07:55:10.052Z,21.50
2022-07-27T07:57:13.519Z,21.50
2022-07-27T07:59:15.913Z,21.60
2022-07-27T08:01:17.891Z,21.60
2022-07-27T08:03:20.018Z,21.70
2022-07-27T08:05:22.412Z,21.70
2022-07-27T08:07:24.219Z,21.80
2022-07-27T08:09:28.417Z,21.80
2022-07-27T08:11:30.223Z,21.90
2022-07-27T08:13:32.017Z,22.00
2022-07-27T08:15:35.749Z,22.10
2022-07-27T08:17:38.156Z,22.10
2022-07-27T08:19:40.478Z,22.20
2022-07-27T08:21:42.349Z,22.30
2022-07-27T08:23:44.154Z,22.30
2022-07-27T08:25:46.319Z,22.40
2022-07-27T08:27:48.254Z,22.40
2022-07-27T08:29:51.727Z,22.50
2022-07-27T08:31:54.158Z,22.50
2022-07-27T08:33:58.080Z,22.70
2022-07-27T08:35:59.888Z,22.70
2022-07-27T08:38:02.645Z,22.80
2022-07-27T08:42:26.411Z,22.90
2022-07-27T08:44:29.891Z,23.00
2022-07-27T08:46:33.094Z,23.10
2022-07-27T08:48:35.479Z,23.20
2022-07-27T08:50:37.339Z,23.30
2022-07-27T08:52:39.498Z,23.30
2022-07-27T08:54:41.783Z,23.40
2022-07-27T08:56:43.706Z,23.50
2022-07-27T08:58:45.868Z,23.50
2022-07-27T09:00:49.788Z,23.60
2022-07-27T09:02:51.822Z,23.70
2022-07-27T09:04:53.801Z,23.70
2022-07-27T09:06:55.598Z,23.70
2022-07-27T09:09:00.411Z,23.80
2022-07-27T09:11:12.163Z,23.90
2022-07-27T09:13:21.523Z,24.00
2022-07-27T09:15:23.326Z,24.00
2022-07-27T09:19:58.734Z,24.10
2022-07-27T09:22:00.536Z,24.20
2022-07-27T09:24:23.263Z,24.30
2022-07-27T09:26:33.948Z,24.40
2022-07-27T09:28:36.301Z,24.50
2022-07-27T09:30:44.252Z,24.60
2022-07-27T09:32:54.216Z,24.60
2022-07-27T09:34:56.114Z,24.70
2022-07-27T09:36:58.510Z,24.80
2022-07-27T09:39:05.660Z,24.80
2022-07-27T09:41:07.512Z,24.80
2022-07-27T09:43:52.101Z,24.80
2022-07-27T09:45:34.459Z,24.90
2022-07-27T09:47:39.801Z,25.00
2022-07-27T09:49:41.724Z,25.10
2022-07-27T09:52:03.046Z,25.10
2022-07-27T09:54:08.482Z,25.20
2022-07-27T09:56:11.975Z,25.30
2022-07-27T09:58:15.492Z,25.20
2022-07-27T10:00:17.997Z,25.30
2022-07-27T10:02:19.933Z,25.30
2022-07-27T10:04:21.964Z,25.40
2022-07-27T10:06:25.200Z,25.40
2022-07-27T10:08:28.796Z,25.40
2022-07-27T10:10:30.705Z,25.40
2022-07-27T10:12:32.513Z,25.40
2022-07-27T10:14:35.391Z,25.50
2022-07-27T10:16:37.793Z,25.50
2022-07-27T10:18:55.412Z,25.50
2022-07-27T10:20:59.278Z,25.50
2022-07-27T10:23:01.199Z,25.50
2022-07-27T10:25:03.127Z,25.60
2022-07-27T10:27:23.645Z,25.60
2022-07-27T10:29:25.697Z,25.60
2022-07-27T10:31:32.031Z,25.70
2022-07-27T10:33:44.051Z,25.70
2022-07-27T10:35:45.862Z,25.70
2022-07-27T10:38:06.615Z,25.70
2022-07-27T10:40:27.497Z,25.70
2022-07-27T10:42:30.380Z,25.60
2022-07-27T10:44:32.195Z,25.60
2022-07-27T10:46:37.184Z,25.60
2022-07-27T10:48:47.535Z,25.60
2022-07-27T10:50:50.548Z,25.60
2022-07-27T10:53:00.511Z,25.60
2022-07-27T10:55:05.556Z,25.60
2022-07-27T10:57:08.801Z,25.60
2022-07-27T10:59:10.606Z,25.60
2022-07-27T11:01:14.685Z,25.60
2022-07-27T11:03:24.404Z,25.60
2022-07-27T11:05:58.664Z,25.60
2022-07-27T11:08:13.469Z,25.60
2022-07-27T11:10:10.490Z,25.60
2022-07-27T11:12:13.733Z,25.70
2022-07-27T11:14:15.814Z,25.70
2022-07-27T11:16:24.380Z,25.70
2022-07-27T11:18:31.151Z,25.80
2022-07-27T11:20:32.943Z,25.80
2022-07-27T11:24:58.043Z,26.00
2022-07-27T11:26:59.832Z,26.20
2022-07-27T11:29:01.633Z,26.20
2022-07-27T11:31:06.308Z,26.20
2022-07-27T11:33:08.239Z,26.30
2022-07-27T11:35:19.777Z,26.30
2022-07-27T11:37:24.083Z,26.40
2022-07-27T11:42:09.030Z,26.30
2022-07-27T11:44:14.939Z,26.20
2022-07-27T11:46:25.740Z,26.10
2022-07-27T11:48:39.111Z,26.10
2022-07-27T11:50:58.663Z,26.10
2022-07-27T11:53:01.989Z,26.10
2022-07-27T11:55:04.184Z,26.00
2022-07-27T11:57:10.085Z,26.00
2022-07-27T11:59:17.115Z,26.00
2022-07-27T12:01:51.466Z,26.10
2022-07-27T12:04:05.282Z,26.10
2022-07-27T12:06:07.079Z,26.10
2022-07-27T12:08:09.234Z,26.10
2022-07-27T12:10:11.278Z,26.20
2022-07-27T12:12:14.439Z,26.20
2022-07-27T12:14:17.163Z,26.30
2022-07-27T12:16:19.312Z,26.50
2022-07-27T12:18:21.125Z,26.50
2022-07-27T12:20:31.568Z,26.60
2022-07-27T12:22:44.053Z,26.80
2022-07-27T12:24:45.854Z,26.90
2022-07-27T12:27:06.218Z,27.00
2022-07-27T12:29:09.983Z,27.10
2022-07-27T12:31:18.723Z,27.10
2022-07-27T12:33:31.112Z,27.10
2022-07-27T12:35:46.910Z,27.10
2022-07-27T12:37:49.467Z,27.00
2022-07-27T12:39:51.289Z,27.00
2022-07-27T12:42:03.163Z,26.90
2022-07-27T12:44:15.768Z,26.90
2022-07-27T12:46:19.564Z,26.80
2022-07-27T12:48:23.095Z,26.80
2022-07-27T12:50:28.488Z,26.70
2022-07-27T12:52:30.527Z,26.80
2022-07-27T12:54:32.325Z,26.70
2022-07-27T12:56:34.726Z,26.70
2022-07-27T12:58:37.743Z,26.80
2022-07-27T13:00:40.133Z,26.80
2022-07-27T13:02:42.518Z,26.90
2022-07-27T13:04:44.700Z,27.00
2022-07-27T13:06:47.711Z,27.10
2022-07-27T13:08:49.644Z,27.20
2022-07-27T13:10:54.074Z,27.20
2022-07-27T13:12:55.988Z,27.40
2022-07-27T13:14:57.905Z,27.50
2022-07-27T13:16:59.760Z,27.60
2022-07-27T13:19:01.634Z,27.70
2022-07-27T13:21:03.443Z,27.70
2022-07-27T13:23:07.160Z,27.70
2022-07-27T13:25:16.345Z,27.60
2022-07-27T13:27:18.802Z,27.50
2022-07-27T13:29:20.725Z,27.30
2022-07-27T13:31:22.573Z,27.20
2022-07-27T13:33:24.698Z,27.10
2022-07-27T13:35:26.732Z,27.00
2022-07-27T13:37:29.261Z,26.90
2022-07-27T13:39:31.073Z,26.80
2022-07-27T13:41:36.575Z,26.80
2022-07-27T13:43:38.376Z,26.70
2022-07-27T13:45:43.277Z,26.70
2022-07-27T13:47:45.581Z,26.70
2022-07-27T13:49:47.390Z,26.70
2022-07-27T13:51:49.307Z,26.60
2022-07-27T13:53:51.236Z,26.60
2022-07-27T13:55:53.047Z,26.60
2022-07-27T13:57:54.836Z,26.60
2022-07-27T13:59:59.757Z,26.70
2022-07-27T14:02:01.729Z,26.70
2022-07-27T14:04:07.691Z,26.80
2022-07-27T14:06:09.969Z,26.90
2022-07-27T14:08:11.896Z,27.10
2022-07-27T14:10:31.777Z,27.20
2022-07-27T14:12:33.615Z,27.20
2022-07-27T14:14:35.461Z,27.30
2022-07-27T14:16:38.797Z,27.30
2022-07-27T14:18:40.701Z,27.40
2022-07-27T14:20:42.622Z,27.40
2022-07-27T14:22:44.422Z,27.30
2022-07-27T14:24:46.228Z,27.20
2022-07-27T14:26:48.024Z,27.10
2022-07-27T14:28:49.825Z,27.00
2022-07-27T14:30:52.110Z,26.90
2022-07-27T14:32:54.029Z,26.90
2022-07-27T14:34:56.311Z,26.80
2022-07-27T14:36:58.113Z,26.70
2022-07-27T14:39:00.039Z,26.70
2022-07-27T14:41:01.844Z,26.70
2022-07-27T14:43:03.907Z,26.90
2022-07-27T14:45:06.530Z,27.00
2022-07-27T14:47:08.441Z,27.10
2022-07-27T14:49:10.330Z,27.20
2022-07-27T14:51:12.290Z,27.30
2022-07-27T14:53:14.093Z,27.30
2022-07-27T14:55:16.149Z,27.50
2022-07-27T14:57:18.178Z,27.80
2022-07-27T14:59:19.982Z,28.20
2022-07-27T15:01:21.849Z,28.40
2022-07-27T15:03:23.703Z,28.60
2022-07-27T15:05:25.507Z,28.60
2022-07-27T15:07:27.328Z,28.50
2022-07-27T15:09:30.518Z,28.50
2022-07-27T15:11:33.089Z,28.70
2022-07-27T15:13:34.874Z,28.80
2022-07-27T15:15:36.686Z,28.80
2022-07-27T15:17:39.681Z,28.80
2022-07-27T15:19:41.604Z,28.80
2022-07-27T15:21:43.402Z,28.70
2022-07-27T15:23:45.323Z,28.60
2022-07-27T15:25:47.130Z,28.40
2022-07-27T15:27:49.772Z,28.70
2022-07-27T15:29:51.691Z,29.00
2022-07-27T15:31:53.542Z,29.40
2022-07-27T15:33:56.017Z,29.80
2022-07-27T15:35:57.951Z,30.20
2022-07-27T15:37:59.749Z,30.60
2022-07-27T15:40:21.467Z,30.70
2022-07-27T15:42:23.268Z,30.70
2022-07-27T15:44:25.068Z,30.50
2022-07-27T15:46:27.758Z,30.30
2022-07-27T15:48:29.874Z,30.10
2022-07-27T15:50:31.676Z,29.90
2022-07-27T15:52:33.716Z,29.90
2022-07-27T15:54:42.138Z,29.70
2022-07-27T15:56:47.163Z,29.50
2022-07-27T15:58:50.303Z,29.30
2022-07-27T16:00:53.529Z,29.00
2022-07-27T16:02:59.292Z,28.80
2022-07-27T16:05:01.334Z,28.60
2022-07-27T16:07:03.253Z,28.30
2022-07-27T16:09:05.054Z,28.20
2022-07-27T16:11:06.862Z,28.00
2022-07-27T16:13:09.498Z,27.90
2022-07-27T16:15:11.663Z,27.80
2022-07-27T16:17:14.063Z,27.60
2022-07-27T16:19:16.010Z,27.50
2022-07-27T16:21:18.627Z,27.40
2022-07-27T16:23:21.598Z,27.30
2022-07-27T16:25:40.177Z,27.20
2022-07-27T16:27:45.756Z,27.20
2022-07-27T16:29:47.558Z,27.10
2022-07-27T16:31:49.619Z,27.00
2022-07-27T16:33:54.911Z,27.00
2022-07-27T16:35:57.289Z,26.90
2022-07-27T16:37:59.093Z,27.10
2022-07-27T16:40:01.007Z,27.40
2022-07-27T16:42:03.177Z,27.40
2022-07-27T16:44:05.208Z,27.40
2022-07-27T16:46:08.603Z,27.40
2022-07-27T16:48:12.300Z,27.40
2022-07-27T16:50:14.457Z,27.30
2022-07-27T16:52:16.260Z,27.30
2022-07-27T16:54:18.305Z,27.20
2022-07-27T16:56:20.946Z,27.10
2022-07-27T16:58:22.760Z,27.10
2022-07-27T17:00:24.550Z,27.00
2022-07-27T17:02:30.559Z,26.90
2022-07-27T17:04:32.441Z,26.90
2022-07-27T17:06:35.357Z,26.80
2022-07-27T17:08:37.159Z,26.70
2022-07-27T17:10:39.704Z,26.60
2022-07-27T17:12:41.602Z,26.50
2022-07-27T17:14:44.378Z,26.50
2022-07-27T17:16:51.974Z,26.50
2022-07-27T17:18:54.571Z,26.40
2022-07-27T17:20:56.372Z,26.30
2022-07-27T17:22:58.414Z,26.30
2022-07-27T17:25:00.219Z,26.30
2022-07-27T17:27:02.018Z,26.30
2022-07-27T17:29:04.658Z,26.40
2022-07-27T17:31:07.465Z,26.50
2022-07-27T17:33:09.343Z,26.40
2022-07-27T17:35:11.510Z,26.40
2022-07-27T17:37:13.431Z,26.40
2022-07-27T17:39:15.647Z,26.40
2022-07-27T17:41:23.684Z,26.40
2022-07-27T17:43:26.516Z,26.40
2022-07-27T17:45:28.315Z,26.30
2022-07-27T17:47:30.134Z,26.30
2022-07-27T17:49:32.087Z,26.20
2022-07-27T17:51:36.132Z,26.10
2022-07-27T17:53:38.648Z,26.00
2022-07-27T17:55:40.448Z,25.90
2022-07-27T17:57:42.266Z,25.80
2022-07-27T17:59:44.537Z,25.70
2022-07-27T18:01:48.414Z,25.60
2022-07-27T18:03:50.604Z,25.50
2022-07-27T18:05:52.699Z,25.40
2022-07-27T18:07:54.634Z,25.30
2022-07-27T18:09:58.346Z,25.20
2022-07-27T18:12:00.268Z,25.10
2022-07-27T18:14:02.073Z,25.00
2022-07-27T18:16:04.046Z,25.00
2022-07-27T18:18:06.053Z,24.90
2022-07-27T18:20:09.288Z,24.80
2022-07-27T18:22:11.076Z,24.70
2022-07-27T18:24:13.124Z,24.70
2022-07-27T18:26:14.928Z,24.60
2022-07-27T18:28:17.203Z,24.50
2022-07-27T18:30:19.008Z,24.50
2022-07-27T18:32:20.807Z,24.30
2022-07-27T18:34:22.611Z,24.20
2022-07-27T18:36:25.493Z,24.10
2022-07-27T18:38:27.305Z,24.10
2022-07-27T18:40:29.218Z,24.00
2022-07-27T18:42:31.139Z,23.90
2022-07-27T18:44:38.836Z,23.80
2022-07-27T18:46:41.503Z,23.70
2022-07-27T18:48:44.401Z,23.60
2022-07-27T18:50:46.269Z,23.50
2022-07-27T18:52:48.320Z,23.40
2022-07-27T18:54:50.237Z,23.30
2022-07-27T18:56:52.046Z,23.20
2022-07-27T18:58:54.922Z,23.20
2022-07-27T19:00:58.284Z,23.10
2022-07-27T19:03:00.418Z,23.00
2022-07-27T19:05:02.257Z,22.90
2022-07-27T19:07:06.288Z,22.80
2022-07-27T19:09:08.372Z,22.80
2022-07-27T19:11:10.537Z,22.70
2022-07-27T19:13:12.814Z,22.70
2022-07-27T19:15:14.761Z,22.60
2022-07-27T19:17:16.629Z,22.60
2022-07-27T19:19:22.788Z,22.50
2022-07-27T19:21:25.311Z,22.40
2022-07-27T19:23:27.238Z,22.40
2022-07-27T19:25:30.714Z,22.30
2022-07-27T19:27:32.759Z,22.20
2022-07-27T19:29:41.163Z,22.20
2022-07-27T19:31:42.955Z,22.10
2022-07-27T19:33:44.879Z,22.00
2022-07-27T19:35:46.689Z,22.00
2022-07-27T19:37:48.487Z,21.90
2022-07-27T19:39:59.910Z,21.90
2022-07-27T19:42:07.692Z,21.90
2022-07-27T19:44:09.730Z,21.80
2022-07-27T19:46:11.663Z,21.80
2022-07-27T19:48:13.572Z,21.80
2022-07-27T19:50:15.386Z,21.80
2022-07-27T19:52:17.432Z,21.80
2022-07-27T19:54:19.823Z,21.80
2022-07-27T19:56:21.747Z,21.80
2022-07-27T19:58:23.546Z,21.80
2022-07-27T20:00:25.352Z,21.80
2022-07-27T20:02:27.199Z,21.70
2022-07-27T20:04:29.207Z,21.70
2022-07-27T20:06:31.593Z,21.70
2022-07-27T20:08:34.719Z,21.60
2022-07-27T20:10:36.646Z,21.60
2022-07-27T20:12:38.567Z,21.50
2022-07-27T20:14:40.363Z,21.50
2022-07-27T20:16:42.343Z,21.50
2022-07-27T20:18:44.210Z,21.50
2022-07-27T20:20:46.009Z,21.60
2022-07-27T20:22:47.931Z,21.50
2022-07-27T20:24:50.823Z,21.50
2022-07-27T20:26:52.626Z,21.40
2022-07-27T20:28:54.911Z,21.40
2022-07-27T20:30:56.760Z,21.30
2022-07-27T20:32:58.623Z,21.30
2022-07-27T20:35:01.389Z,21.30
2022-07-27T20:37:03.188Z,21.30
2022-07-27T20:39:07.604Z,21.20
2022-07-27T20:41:10.153Z,21.20
2022-07-27T20:43:12.075Z,21.20
2022-07-27T20:45:15.017Z,21.10
2022-07-27T20:47:16.884Z,21.10
2022-07-27T20:49:19.194Z,21.00
2022-07-27T20:51:21.091Z,21.00
2022-07-27T20:53:24.328Z,20.90
2022-07-27T20:55:26.126Z,20.90
2022-07-27T20:57:28.051Z,20.90
2022-07-27T20:59:29.972Z,20.80
2022-07-27T21:01:31.872Z,20.80
2022-07-27T21:03:34.414Z,20.80
2022-07-27T21:05:36.230Z,20.80
2022-07-27T21:07:38.030Z,20.70
2022-07-27T21:09:40.188Z,20.70
2022-07-27T21:11:42.109Z,20.60
2022-07-27T21:13:43.910Z,20.60
2022-07-27T21:15:45.713Z,20.60
2022-07-27T21:17:47.509Z,20.50
2022-07-27T21:19:49.316Z,20.50
2022-07-27T21:21:51.122Z,20.40
2022-07-27T21:24:11.952Z,20.40
2022-07-27T21:26:15.576Z,20.40
2022-07-27T21:28:23.082Z,20.30
2022-07-27T21:30:26.765Z,20.30
2022-07-27T21:32:29.056Z,20.20
2022-07-27T21:34:30.856Z,20.20
2022-07-27T21:36:32.652Z,20.20
2022-07-27T21:38:34.458Z,20.10
2022-07-27T21:40:36.384Z,20.10
2022-07-27T21:42:38.186Z,20.00
2022-07-27T21:44:40.458Z,20.00
2022-07-27T21:46:42.625Z,20.00
2022-07-27T21:48:44.468Z,20.00
2022-07-27T21:50:46.348Z,20.00
2022-07-27T21:52:48.162Z,19.90
2022-07-27T21:54:50.070Z,19.90
2022-07-27T21:56:51.878Z,19.80
2022-07-27T21:58:53.682Z,19.80
2022-07-27T22:00:55.561Z,19.80
2022-07-27T22:02:57.406Z,19.80
2022-07-27T22:04:59.323Z,19.80
2022-07-27T22:07:01.128Z,19.70
2022-07-27T22:09:03.650Z,19.60
2022-07-27T22:11:05.690Z,19.60
2022-07-27T22:13:07.614Z,19.60
2022-07-27T22:15:09.789Z,19.60
2022-07-27T22:17:11.823Z,19.50
2022-07-27T22:19:14.339Z,19.50
2022-07-27T22:21:16.138Z,19.50
2022-07-27T22:23:18.073Z,19.50
2022-07-27T22:25:19.986Z,19.40
2022-07-27T22:27:22.147Z,19.40
2022-07-27T22:29:23.963Z,19.40
2022-07-27T22:31:25.967Z,19.30
2022-07-27T22:33:27.912Z,19.30
2022-07-27T22:35:30.337Z,19.20
2022-07-27T22:37:32.245Z,19.30
2022-07-27T22:39:34.282Z,19.20
2022-07-27T22:41:36.208Z,19.20
2022-07-27T22:43:38.005Z,19.10
2022-07-27T22:45:39.832Z,19.10
2022-07-27T22:47:42.568Z,19.10
2022-07-27T22:49:45.222Z,19.00
2022-07-27T22:51:49.429Z,19.00
2022-07-27T22:53:52.657Z,18.90
2022-07-27T22:55:54.580Z,18.90
2022-07-27T22:57:56.397Z,18.90
2022-07-27T22:59:58.196Z,18.80
2022-07-27T23:02:00.305Z,18.80
2022-07-27T23:04:02.269Z,18.70
2022-07-27T23:06:04.199Z,18.70
2022-07-27T23:08:06.116Z,18.70
2022-07-27T23:10:30.693Z,18.70
2022-07-27T23:12:32.755Z,18.60
2022-07-27T23:14:34.567Z,18.60
2022-07-27T23:16:36.519Z,18.50
2022-07-27T23:18:38.406Z,18.50
2022-07-27T23:20:40.326Z,18.40
2022-07-27T23:22:42.138Z,18.40
2022-07-27T23:24:43.933Z,18.40
2022-07-27T23:26:45.853Z,18.30
2022-07-27T23:28:47.656Z,18.30
2022-07-27T23:30:51.375Z,18.30
2022-07-27T23:32:54.625Z,18.20
2022-07-27T23:34:56.420Z,18.20
2022-07-27T23:36:58.583Z,18.20
2022-07-27T23:39:00.387Z,18.10
2022-07-27T23:41:02.314Z,18.10
2022-07-27T23:43:04.111Z,18.00
2022-07-27T23:45:06.391Z,18.00
2022-07-27T23:47:08.395Z,18.00
2022-07-27T23:49:10.421Z,17.90
2022-07-27T23:51:18.535Z,17.90
2022-07-27T23:53:21.413Z,17.90
2022-07-27T23:55:23.444Z,17.80
2022-07-27T23:57:28.724Z,17.80
2022-07-27T23:59:30.766Z,17.70
